createdAt,value
2023-04-02T00:00:37.635Z,-2.54
2023-04-02T00:03:42.961Z,-2.46
2023-04-02T00:06:46.790Z,-2.32
2023-04-02T00:09:50.593Z,-2.54
2023-04-02T00:13:12.080Z,-2.44
2023-04-02T00:16:22.912Z,-2.35
2023-04-02T00:19:37.473Z,-2.38
2023-04-02T00:22:46.350Z,-2.20
2023-04-02T00:25:49.392Z,-2.39
2023-04-02T00:28:53.239Z,-2.57
2023-04-02T00:31:59.835Z,-2.40
2023-04-02T00:35:04.260Z,-2.31
2023-04-02T00:38:08.747Z,-2.46
2023-04-02T00:41:20.329Z,-2.30
2023-04-02T00:44:24.387Z,-2.15
2023-04-02T00:47:38.046Z,-2.33
2023-04-02T00:50:44.335Z,-2.35
2023-04-02T00:53:49.643Z,-2.25
2023-04-02T00:56:55.935Z,-2.14
2023-04-02T01:00:09.460Z,-2.20
2023-04-02T01:03:35.427Z,-2.15
2023-04-02T01:06:40.327Z,-2.05
2023-04-02T01:10:12.032Z,-2.16
2023-04-02T01:13:31.006Z,-2.12
2023-04-02T01:16:51.012Z,-2.01
2023-04-02T01:20:38.664Z,-2.01
2023-04-02T01:23:59.925Z,-1.96
2023-04-02T01:27:12.979Z,-1.73
2023-04-02T01:30:17.810Z,-1.73
2023-04-02T01:33:30.615Z,-1.71
2023-04-02T01:36:57.381Z,-1.67
2023-04-02T01:40:13.590Z,-2.07
2023-04-02T01:43:49.702Z,-2.12
2023-04-02T01:46:53.975Z,-2.21
2023-04-02T01:50:10.655Z,-2.16
2023-04-02T01:53:17.686Z,-2.17
2023-04-02T01:56:21.941Z,-2.01
2023-04-02T01:59:26.838Z,-2.03
2023-04-02T02:02:36.042Z,-1.88
2023-04-02T02:05:39.529Z,-1.76
2023-04-02T02:09:01.900Z,-1.74
2023-04-02T02:12:06.299Z,-1.82
2023-04-02T02:15:17.711Z,-1.74
2023-04-02T02:18:24.090Z,-1.92
2023-04-02T02:21:32.709Z,-2.22
2023-04-02T02:24:38.133Z,-2.15
2023-04-02T02:28:19.237Z,-2.30
2023-04-02T02:31:31.659Z,-2.16
2023-04-02T02:34:44.131Z,-2.46
2023-04-02T02:37:53.783Z,-2.45
2023-04-02T02:41:02.686Z,-2.38
2023-04-02T02:44:12.757Z,-2.50
2023-04-02T02:47:38.286Z,-2.23
2023-04-02T02:50:44.874Z,-2.26
2023-04-02T02:53:56.445Z,-2.30
2023-04-02T02:57:04.648Z,-2.32
2023-04-02T03:00:12.254Z,-2.21
2023-04-02T03:03:25.075Z,-2.24
2023-04-02T03:06:33.500Z,-2.48
2023-04-02T03:10:15.977Z,-2.15
2023-04-02T03:13:25.490Z,-2.27
2023-04-02T03:16:42.310Z,-2.39
2023-04-02T03:19:51.433Z,-2.64
2023-04-02T03:23:19.272Z,-2.55
2023-04-02T03:26:28.528Z,-2.35
2023-04-02T03:29:40.801Z,-2.45
2023-04-02T03:32:47.960Z,-2.32
2023-04-02T03:36:11.761Z,-2.16
2023-04-02T03:39:26.828Z,-2.21
2023-04-02T03:42:40.243Z,-2.12
2023-04-02T03:45:49.979Z,-2.29
2023-04-02T03:49:02.993Z,-2.47
2023-04-02T03:52:18.647Z,-2.38
2023-04-02T03:55:29.604Z,-2.44
2023-04-02T03:58:45.159Z,-2.38
2023-04-02T04:01:59.958Z,-2.13
2023-04-02T04:05:05.772Z,-1.89
2023-04-02T04:08:17.900Z,-1.76
2023-04-02T04:11:27.997Z,-1.97
2023-04-02T04:14:35.848Z,-2.14
2023-04-02T04:18:03.887Z,-1.95
2023-04-02T04:21:32.005Z,-1.94
2023-04-02T04:24:46.420Z,-1.59
2023-04-02T04:28:17.479Z,-1.55
2023-04-02T04:31:31.383Z,-1.73
2023-04-02T04:34:47.695Z,-2.05
2023-04-02T04:38:08.249Z,-1.98
2023-04-02T04:41:23.600Z,-2.22
2023-04-02T04:44:53.426Z,-2.13
2023-04-02T04:48:03.918Z,-1.97
2023-04-02T04:51:36.164Z,-2.00
2023-04-02T04:54:41.494Z,-2.20
2023-04-02T04:57:49.554Z,-2.25
2023-04-02T05:01:32.710Z,-2.06
2023-04-02T05:04:42.669Z,-1.83
2023-04-02T05:07:54.047Z,-1.93
2023-04-02T05:11:14.141Z,-2.13
2023-04-02T05:14:30.900Z,-2.05
2023-04-02T05:17:38.013Z,-1.83
2023-04-02T05:21:04.986Z,-1.72
2023-04-02T05:24:28.176Z,-1.83
2023-04-02T05:28:03.617Z,-1.77
2023-04-02T05:31:23.010Z,-1.81
2023-04-02T05:34:31.440Z,-1.74
2023-04-02T05:37:35.764Z,-1.64
2023-04-02T05:40:45.611Z,-1.60
2023-04-02T05:43:52.088Z,-1.37
2023-04-02T05:47:05.294Z,-1.29
2023-04-02T05:50:13.209Z,-1.97
2023-04-02T05:53:41.667Z,-1.92
2023-04-02T05:56:50.747Z,-2.04
2023-04-02T05:59:59.008Z,-1.90
2023-04-02T06:03:14.690Z,-1.60
2023-04-02T06:06:43.593Z,-1.31
2023-04-02T06:09:51.613Z,-1.21
2023-04-02T06:12:58.812Z,-1.19
2023-04-02T06:16:02.882Z,-1.65
2023-04-02T06:19:23.623Z,-1.58
2023-04-02T06:22:40.041Z,-1.48
2023-04-02T06:25:58.357Z,-1.37
2023-04-02T06:29:26.998Z,-1.08
2023-04-02T06:32:32.618Z,-1.47
2023-04-02T06:35:40.316Z,-1.11
2023-04-02T06:38:44.722Z,-1.78
2023-04-02T06:42:01.542Z,-1.72
2023-04-02T06:45:44.613Z,-1.41
2023-04-02T06:49:44.868Z,-1.38
2023-04-02T06:52:52.957Z,-1.31
2023-04-02T06:56:04.367Z,-1.08
2023-04-02T06:59:10.870Z,-1.42
2023-04-02T07:02:37.537Z,-1.23
2023-04-02T07:05:44.102Z,-1.13
2023-04-02T07:08:48.979Z,-1.09
2023-04-02T07:11:53.297Z,-1.37
2023-04-02T07:14:57.758Z,-1.19
2023-04-02T07:18:01.903Z,-1.28
2023-04-02T07:21:05.602Z,-1.42
2023-04-02T07:24:08.940Z,-1.36
2023-04-02T07:27:15.087Z,-1.45
2023-04-02T07:30:19.065Z,-1.44
2023-04-02T07:33:25.920Z,-1.13
2023-04-02T07:36:30.239Z,-1.26
2023-04-02T07:39:35.763Z,-1.11
2023-04-02T07:42:39.947Z,-1.37
2023-04-02T07:45:43.396Z,-1.32
2023-04-02T07:48:47.341Z,-1.35
2023-04-02T07:51:50.497Z,-1.39
2023-04-02T07:54:54.257Z,-1.44
2023-04-02T07:57:59.718Z,-1.50
2023-04-02T08:01:05.352Z,-1.56
2023-04-02T08:04:22.049Z,-1.35
2023-04-02T08:07:25.592Z,-1.49
2023-04-02T08:10:28.690Z,-1.61
2023-04-02T08:13:32.732Z,-1.60
2023-04-02T08:16:56.541Z,-1.32
2023-04-02T08:20:02.967Z,-1.15
2023-04-02T08:23:14.364Z,-0.98
2023-04-02T08:26:19.439Z,-0.87
2023-04-02T08:29:23.330Z,-1.02
2023-04-02T08:32:29.593Z,-1.34
2023-04-02T08:35:33.215Z,-1.66
2023-04-02T08:38:36.406Z,-1.67
2023-04-02T08:41:50.180Z,-1.59
2023-04-02T08:45:21.085Z,-1.82
2023-04-02T08:48:27.030Z,-2.18
2023-04-02T08:51:36.364Z,-2.00
2023-04-02T08:54:44.414Z,-1.83
2023-04-02T08:57:52.543Z,-1.78
2023-04-02T09:00:57.704Z,-1.68
2023-04-02T09:04:03.857Z,-1.59
2023-04-02T09:07:12.690Z,-1.75
2023-04-02T09:10:20.067Z,-1.93
2023-04-02T09:13:30.339Z,-1.98
2023-04-02T09:16:47.645Z,-1.86
2023-04-02T09:20:09.562Z,-1.89
2023-04-02T09:23:22.912Z,-1.72
2023-04-02T09:26:30.087Z,-1.89
2023-04-02T09:29:40.321Z,-1.88
2023-04-02T09:32:51.889Z,-1.82
2023-04-02T09:35:58.326Z,-1.83
2023-04-02T09:39:07.979Z,-1.95
2023-04-02T09:42:38.637Z,-2.25
2023-04-02T09:45:44.057Z,-2.67
2023-04-02T09:49:01.817Z,-2.63
2023-04-02T09:52:19.961Z,-2.37
2023-04-02T09:55:31.746Z,-2.34
2023-04-02T09:58:35.504Z,-2.26
2023-04-02T10:01:42.609Z,-2.44
2023-04-02T10:04:48.636Z,-2.62
2023-04-02T10:07:55.284Z,-2.58
2023-04-02T10:11:01.835Z,-2.64
2023-04-02T10:14:12.842Z,-2.82
2023-04-02T10:17:21.778Z,-2.95
2023-04-02T10:20:28.490Z,-3.11
2023-04-02T10:23:33.140Z,-3.19
2023-04-02T10:26:51.381Z,-3.25
2023-04-02T10:30:20.052Z,-3.16
2023-04-02T10:33:33.220Z,-3.21
2023-04-02T10:36:55.661Z,-3.28
2023-04-02T10:40:12.713Z,-3.24
2023-04-02T10:44:19.711Z,-3.30
2023-04-02T10:47:32.061Z,-3.47
2023-04-02T10:50:47.692Z,-3.55
2023-04-02T10:54:14.461Z,-3.59
2023-04-02T10:57:20.621Z,-3.64
2023-04-02T11:00:32.307Z,-3.58
2023-04-02T11:03:57.858Z,-3.69
2023-04-02T11:07:14.318Z,-3.69
2023-04-02T11:10:21.981Z,-3.61
2023-04-02T11:14:00.224Z,-3.64
2023-04-02T11:17:04.151Z,-3.77
2023-04-02T11:20:45.140Z,-3.82
2023-04-02T11:24:01.840Z,-3.83
2023-04-02T11:27:11.388Z,-3.97
2023-04-02T11:30:25.776Z,-3.91
2023-04-02T11:33:39.918Z,-3.84
2023-04-02T11:36:51.502Z,-3.97
2023-04-02T11:40:00.372Z,-4.01
2023-04-02T11:43:38.911Z,-4.06
2023-04-02T11:46:46.017Z,-4.02
2023-04-02T11:50:04.814Z,-4.13
2023-04-02T11:53:12.501Z,-4.04
2023-04-02T11:56:30.088Z,-4.00
2023-04-02T12:00:09.682Z,-4.13
2023-04-02T12:03:37.733Z,-4.06
2023-04-02T12:07:05.054Z,-4.09
2023-04-02T12:10:20.963Z,-4.15
2023-04-02T12:13:43.433Z,-4.16
2023-04-02T12:16:48.705Z,-4.18
2023-04-02T12:19:56.302Z,-4.40
2023-04-02T12:22:59.435Z,-4.31
2023-04-02T12:26:24.024Z,-4.34
2023-04-02T12:29:29.665Z,-4.46
2023-04-02T12:32:35.023Z,-4.40
2023-04-02T12:35:46.157Z,-4.41
2023-04-02T12:38:59.707Z,-4.34
2023-04-02T12:42:03.449Z,-4.32
2023-04-02T12:45:08.362Z,-4.24
2023-04-02T12:48:13.032Z,-4.14
2023-04-02T12:51:17.665Z,-4.24
2023-04-02T12:54:21.532Z,-4.22
2023-04-02T12:57:28.178Z,-4.26
2023-04-02T13:00:33.044Z,-4.19
2023-04-02T13:03:37.118Z,-4.18
2023-04-02T13:06:48.220Z,-4.13
2023-04-02T13:09:57.149Z,-4.31
2023-04-02T13:13:04.738Z,-4.28
2023-04-02T13:16:14.269Z,-4.22
2023-04-02T13:19:17.939Z,-4.40
2023-04-02T13:22:32.840Z,-4.30
2023-04-02T13:25:37.435Z,-4.38
2023-04-02T13:28:41.640Z,-4.35
2023-04-02T13:31:45.496Z,-4.22
2023-04-02T13:34:49.602Z,-4.29
2023-04-02T13:37:53.389Z,-4.47
2023-04-02T13:40:57.488Z,-4.39
2023-04-02T13:44:03.324Z,-4.53
2023-04-02T13:47:07.005Z,-4.43
2023-04-02T13:50:18.793Z,-4.53
2023-04-02T13:53:33.246Z,-4.51
2023-04-02T13:56:38.013Z,-4.48
2023-04-02T13:59:42.217Z,-4.41
2023-04-02T14:02:49.998Z,-4.46
2023-04-02T14:06:10.074Z,-4.42
2023-04-02T14:09:42.083Z,-4.48
2023-04-02T14:13:26.375Z,-4.55
2023-04-02T14:16:52.509Z,-4.53
2023-04-02T14:20:08.195Z,-4.52
2023-04-02T14:23:41.053Z,-4.54
2023-04-02T14:27:06.048Z,-4.57
2023-04-02T14:30:23.605Z,-4.49
2023-04-02T14:33:35.036Z,-4.55
2023-04-02T14:36:43.971Z,-4.58
2023-04-02T14:39:51.248Z,-4.58
2023-04-02T14:43:09.008Z,-4.65
2023-04-02T14:46:12.269Z,-4.68
2023-04-02T14:49:29.574Z,-4.57
2023-04-02T14:52:35.777Z,-4.58
2023-04-02T14:55:50.482Z,-4.55
2023-04-02T14:59:26.738Z,-4.57
2023-04-02T15:02:36.476Z,-4.57
2023-04-02T15:05:46.400Z,-4.68
2023-04-02T15:09:08.854Z,-4.63
2023-04-02T15:12:27.880Z,-4.59
2023-04-02T15:15:43.035Z,-4.66
2023-04-02T15:18:51.538Z,-4.71
2023-04-02T15:22:20.273Z,-4.82
2023-04-02T15:25:34.606Z,-4.83
2023-04-02T15:28:48.330Z,-4.76
2023-04-02T15:31:55.349Z,-4.92
2023-04-02T15:35:28.279Z,-5.06
2023-04-02T15:38:45.093Z,-5.14
2023-04-02T15:42:18.085Z,-5.20
2023-04-02T15:45:53.141Z,-5.04
2023-04-02T15:48:56.373Z,-5.02
2023-04-02T15:52:17.522Z,-4.96
2023-04-02T15:55:30.345Z,-4.80
2023-04-02T15:58:54.928Z,-4.74
2023-04-02T16:02:38.263Z,-4.81
2023-04-02T16:06:06.241Z,-4.77
2023-04-02T16:09:36.445Z,-4.75
2023-04-02T16:12:41.593Z,-4.67
2023-04-02T16:15:59.921Z,-4.66
2023-04-02T16:19:40.086Z,-4.82
2023-04-02T16:22:59.934Z,-4.96
2023-04-02T16:26:18.874Z,-5.17
2023-04-02T16:29:22.062Z,-5.25
2023-04-02T16:32:44.198Z,-5.22
2023-04-02T16:36:18.215Z,-5.23
2023-04-02T16:39:45.677Z,-5.48
2023-04-02T16:43:20.102Z,-5.50
2023-04-02T16:46:50.531Z,-5.59
2023-04-02T16:50:34.643Z,-5.55
2023-04-02T16:54:02.137Z,-5.56
2023-04-02T16:57:08.660Z,-5.59
2023-04-02T17:00:42.940Z,-5.60
2023-04-02T17:04:03.498Z,-5.68
2023-04-02T17:07:11.969Z,-5.36
2023-04-02T17:10:32.752Z,-5.22
2023-04-02T17:13:49.999Z,-5.16
2023-04-02T17:17:01.715Z,-5.21
2023-04-02T17:20:14.624Z,-5.25
2023-04-02T17:23:19.954Z,-5.34
2023-04-02T17:26:28.500Z,-5.37
2023-04-02T17:29:37.261Z,-5.34
2023-04-02T17:32:40.926Z,-5.38
2023-04-02T17:35:55.493Z,-5.47
2023-04-02T17:39:20.306Z,-5.55
2023-04-02T17:42:53.214Z,-5.61
2023-04-02T17:46:00.499Z,-5.50
2023-04-02T17:49:11.535Z,-5.45
2023-04-02T17:52:40.907Z,-5.44
2023-04-02T17:56:05.403Z,-5.47
2023-04-02T17:59:24.353Z,-5.59
2023-04-02T18:02:46.390Z,-5.54
2023-04-02T18:06:00.027Z,-5.76
2023-04-02T18:09:23.927Z,-5.94
2023-04-02T18:12:48.349Z,-5.89
2023-04-02T18:15:57.971Z,-5.94
2023-04-02T18:19:18.457Z,-5.78
2023-04-02T18:22:32.277Z,-6.04
2023-04-02T18:25:44.506Z,-6.08
2023-04-02T18:29:16.908Z,-6.22
2023-04-02T18:32:30.067Z,-6.25
2023-04-02T18:35:52.345Z,-6.37
2023-04-02T18:39:20.831Z,-6.48
2023-04-02T18:42:38.608Z,-6.66
2023-04-02T18:45:42.641Z,-6.65
2023-04-02T18:49:00.686Z,-6.92
2023-04-02T18:52:16.012Z,-6.92
2023-04-02T18:55:23.275Z,-6.89
2023-04-02T18:58:58.861Z,-6.81
2023-04-02T19:02:22.729Z,-6.81
2023-04-02T19:05:36.473Z,-6.74
2023-04-02T19:08:57.651Z,-6.76
2023-04-02T19:12:01.908Z,-6.67
2023-04-02T19:15:17.161Z,-6.70
2023-04-02T19:18:32.564Z,-6.74
2023-04-02T19:22:13.006Z,-6.72
2023-04-02T19:25:47.199Z,-6.71
2023-04-02T19:29:06.176Z,-6.63
2023-04-02T19:32:54.827Z,-7.00
2023-04-02T19:36:33.505Z,-7.06
2023-04-02T19:39:58.401Z,-7.14
2023-04-02T19:43:02.105Z,-7.21
2023-04-02T19:46:06.105Z,-7.55
2023-04-02T19:49:23.143Z,-7.61
2023-04-02T19:52:26.161Z,-7.51
2023-04-02T19:55:29.268Z,-7.66
2023-04-02T19:58:37.177Z,-7.57
2023-04-02T20:01:41.277Z,-7.61
2023-04-02T20:04:45.280Z,-7.68
2023-04-02T20:07:49.059Z,-7.69
2023-04-02T20:10:53.315Z,-7.63
2023-04-02T20:13:57.300Z,-7.64
2023-04-02T20:17:00.792Z,-7.65
2023-04-02T20:20:05.025Z,-7.60
2023-04-02T20:23:08.426Z,-7.68
2023-04-02T20:26:12.287Z,-7.81
2023-04-02T20:29:16.468Z,-7.85
2023-04-02T20:32:20.018Z,-7.66
2023-04-02T20:35:23.500Z,-7.52
2023-04-02T20:38:26.643Z,-7.53
2023-04-02T20:41:30.119Z,-7.41
2023-04-02T20:44:33.893Z,-7.18
2023-04-02T20:47:38.383Z,-7.28
2023-04-02T20:50:42.223Z,-7.32
2023-04-02T20:53:45.715Z,-7.40
2023-04-02T20:56:50.814Z,-7.37
2023-04-02T20:59:55.157Z,-7.52
2023-04-02T21:03:00.642Z,-7.44
2023-04-02T21:06:04.811Z,-7.58
2023-04-02T21:09:15.398Z,-7.62
2023-04-02T21:12:19.824Z,-7.53
2023-04-02T21:15:23.220Z,-7.56
2023-04-02T21:18:26.960Z,-7.60
2023-04-02T21:21:31.769Z,-7.49
2023-04-02T21:24:35.862Z,-7.53
2023-04-02T21:27:39.616Z,-7.63
2023-04-02T21:30:42.809Z,-7.75
2023-04-02T21:33:52.259Z,-7.91
2023-04-02T21:36:55.507Z,-8.06
2023-04-02T21:39:58.629Z,-8.00
2023-04-02T21:43:01.802Z,-8.09
2023-04-02T21:46:05.436Z,-8.04
2023-04-02T21:49:10.602Z,-8.02
2023-04-02T21:52:13.880Z,-7.97
2023-04-02T21:55:17.956Z,-8.20
2023-04-02T21:58:21.541Z,-8.19
2023-04-02T22:01:28.459Z,-8.31
2023-04-02T22:04:33.849Z,-8.22
2023-04-02T22:07:37.724Z,-8.06
2023-04-02T22:10:41.309Z,-8.11
2023-04-02T22:13:47.565Z,-8.20
2023-04-02T22:16:52.526Z,-8.02
2023-04-02T22:19:55.940Z,-7.99
2023-04-02T22:22:59.632Z,-7.94
2023-04-02T22:26:04.551Z,-7.92
2023-04-02T22:29:08.713Z,-8.09
2023-04-02T22:32:12.402Z,-7.97
2023-04-02T22:35:16.218Z,-7.97
2023-04-02T22:38:20.136Z,-7.97
2023-04-02T22:41:29.266Z,-7.68
2023-04-02T22:44:33.403Z,-7.68
2023-04-02T22:47:37.238Z,-7.43
2023-04-02T22:50:40.994Z,-7.50
2023-04-02T22:53:45.133Z,-7.38
2023-04-02T22:56:48.430Z,-7.11
2023-04-02T22:59:52.028Z,-7.32
2023-04-02T23:02:55.021Z,-7.26
2023-04-02T23:06:04.434Z,-7.18
2023-04-02T23:09:08.575Z,-7.01
2023-04-02T23:12:13.240Z,-6.95
2023-04-02T23:15:17.728Z,-6.79
2023-04-02T23:18:21.317Z,-6.60
2023-04-02T23:21:24.984Z,-6.45
2023-04-02T23:24:28.988Z,-6.19
2023-04-02T23:27:32.223Z,-6.46
2023-04-02T23:30:36.576Z,-6.12
2023-04-02T23:33:40.175Z,-6.14
2023-04-02T23:36:44.048Z,-6.51
2023-04-02T23:39:47.355Z,-6.46
2023-04-02T23:42:51.103Z,-6.46
2023-04-02T23:45:55.343Z,-6.32
2023-04-02T23:49:00.805Z,-5.88
2023-04-02T23:52:05.164Z,-6.14
2023-04-02T23:55:09.362Z,-6.38
2023-04-02T23:58:12.671Z,-6.44
